sensor_id;sensor_type;location;lat;lon;timestamp;pressure;altitude;pressure_sealevel;temperature;humidity
48624;BME280;34422;45.802;16.114;2022-11-09T00:00:49;100544.16;;;5.66;100.00
48624;BME280;34422;45.802;16.114;2022-11-09T00:03:16;100550.72;;;5.64;100.00
48624;BME280;34422;45.802;16.114;2022-11-09T00:05:43;100550.22;;;5.60;100.00
48624;BME280;34422;45.802;16.114;2022-11-09T00:08:10;100548.06;;;5.56;100.00
48624;BME280;34422;45.802;16.114;2022-11-09T00:10:37;100555.41;;;5.62;100.00
48624;BME280;34422;45.802;16.114;2022-11-09T00:13:04;100550.22;;;5.60;100.00
48624;BME280;34422;45.802;16.114;2022-11-09T00:15:31;100548.56;;;5.59;100.00
48624;BME280;34422;45.802;16.114;2022-11-09T00:18:00;100551.06;;;5.61;100.00
48624;BME280;34422;45.802;16.114;2022-11-09T00:20:28;100558.09;;;5.62;100.00
48624;BME280;34422;45.802;16.114;2022-11-09T00:22:55;100551.41;;;5.58;100.00
48624;BME280;34422;45.802;16.114;2022-11-09T00:25:22;100552.44;;;5.57;100.00
48624;BME280;34422;45.802;16.114;2022-11-09T00:27:49;100557.81;;;5.57;100.00
48624;BME280;34422;45.802;16.114;2022-11-09T00:30:16;100558.81;;;5.56;100.00
48624;BME280;34422;45.802;16.114;2022-11-09T00:32:43;100556.13;;;5.56;100.00
48624;BME280;34422;45.802;16.114;2022-11-09T00:35:10;100549.25;;;5.53;100.00
48624;BME280;34422;45.802;16.114;2022-11-09T00:37:37;100551.75;;;5.55;100.00
48624;BME280;34422;45.802;16.114;2022-11-09T00:40:04;100547.72;;;5.59;100.00
48624;BME280;34422;45.802;16.114;2022-11-09T00:42:31;100544.72;;;5.54;100.00
48624;BME280;34422;45.802;16.114;2022-11-09T00:44:57;100542.41;;;5.43;100.00
48624;BME280;34422;45.802;16.114;2022-11-09T00:47:24;100548.44;;;5.36;100.00
48624;BME280;34422;45.802;16.114;2022-11-09T00:49:51;100552.84;;;5.29;100.00
48624;BME280;34422;45.802;16.114;2022-11-09T00:52:18;100552.69;;;5.23;100.00
48624;BME280;34422;45.802;16.114;2022-11-09T00:54:45;100560.91;;;5.21;100.00
48624;BME280;34422;45.802;16.114;2022-11-09T00:57:12;100546.84;;;5.19;100.00
48624;BME280;34422;45.802;16.114;2022-11-09T00:59:39;100555.53;;;5.21;100.00
48624;BME280;34422;45.802;16.114;2022-11-09T01:02:06;100548.50;;;5.20;100.00
48624;BME280;34422;45.802;16.114;2022-11-09T01:04:33;100545.16;;;5.18;100.00
48624;BME280;34422;45.802;16.114;2022-11-09T01:06:59;100553.84;;;5.20;100.00
48624;BME280;34422;45.802;16.114;2022-11-09T01:09:26;100557.56;;;5.19;100.00
48624;BME280;34422;45.802;16.114;2022-11-09T01:11:53;100547.84;;;5.10;100.00
48624;BME280;34422;45.802;16.114;2022-11-09T01:14:20;100550.03;;;5.07;100.00
48624;BME280;34422;45.802;16.114;2022-11-09T01:16:46;100537.81;;;5.04;100.00
48624;BME280;34422;45.802;16.114;2022-11-09T01:19:13;100533.63;;;5.02;100.00
48624;BME280;34422;45.802;16.114;2022-11-09T01:21:40;100543.50;;;5.01;100.00
48624;BME280;34422;45.802;16.114;2022-11-09T01:24:08;100531.78;;;4.94;100.00
48624;BME280;34422;45.802;16.114;2022-11-09T01:26:35;100542.16;;;4.97;100.00
48624;BME280;34422;45.802;16.114;2022-11-09T01:29:02;100526.41;;;4.94;100.00
48624;BME280;34422;45.802;16.114;2022-11-09T01:31:29;100532.13;;;4.91;100.00
48624;BME280;34422;45.802;16.114;2022-11-09T01:33:56;100530.09;;;4.93;100.00
48624;BME280;34422;45.802;16.114;2022-11-09T01:36:23;100532.97;;;4.91;100.00
48624;BME280;34422;45.802;16.114;2022-11-09T01:38:50;100532.13;;;4.91;100.00
48624;BME280;34422;45.802;16.114;2022-11-09T01:41:20;100523.75;;;4.86;100.00
48624;BME280;34422;45.802;16.114;2022-11-09T01:44:09;100526.59;;;4.84;100.00
48624;BME280;34422;45.802;16.114;2022-11-09T01:49:18;100523.91;;;4.84;100.00
48624;BME280;34422;45.802;16.114;2022-11-09T01:51:50;100524.25;;;4.81;100.00
48624;BME280;34422;45.802;16.114;2022-11-09T01:54:28;100530.78;;;4.79;100.00
48624;BME280;34422;45.802;16.114;2022-11-09T01:57:01;100532.81;;;4.77;100.00
48624;BME280;34422;45.802;16.114;2022-11-09T01:59:32;100516.06;;;4.75;100.00
48624;BME280;34422;45.802;16.114;2022-11-09T02:02:00;100532.16;;;4.75;100.00
48624;BME280;34422;45.802;16.114;2022-11-09T02:04:39;100527.13;;;4.72;100.00
48624;BME280;34422;45.802;16.114;2022-11-09T02:07:06;100528.28;;;4.69;100.00
48624;BME280;34422;45.802;16.114;2022-11-09T02:09:52;100523.75;;;4.70;100.00
48624;BME280;34422;45.802;16.114;2022-11-09T02:12:21;100515.03;;;4.68;100.00
48624;BME280;34422;45.802;16.114;2022-11-09T02:14:51;100525.28;;;4.64;100.00
48624;BME280;34422;45.802;16.114;2022-11-09T02:17:19;100521.25;;;4.60;100.00
48624;BME280;34422;45.802;16.114;2022-11-09T02:19:46;100522.59;;;4.56;100.00
48624;BME280;34422;45.802;16.114;2022-11-09T02:22:14;100523.75;;;4.53;100.00
48624;BME280;34422;45.802;16.114;2022-11-09T02:24:41;100520.06;;;4.54;100.00
48624;BME280;34422;45.802;16.114;2022-11-09T02:27:08;100520.41;;;4.51;100.00
48624;BME280;34422;45.802;16.114;2022-11-09T02:29:37;100529.81;;;4.47;100.00
48624;BME280;34422;45.802;16.114;2022-11-09T02:32:09;100516.06;;;4.34;100.00
48624;BME280;34422;45.802;16.114;2022-11-09T02:34:38;100509.03;;;4.33;100.00
48624;BME280;34422;45.802;16.114;2022-11-09T02:37:05;100511.88;;;4.23;100.00
48624;BME280;34422;45.802;16.114;2022-11-09T02:39:32;100506.84;;;4.20;100.00
48624;BME280;34422;45.802;16.114;2022-11-09T02:42:06;100512.00;;;4.14;100.00
48624;BME280;34422;45.802;16.114;2022-11-09T02:44:38;100513.00;;;4.13;100.00
48624;BME280;34422;45.802;16.114;2022-11-09T02:47:06;100505.31;;;4.10;100.00
48624;BME280;34422;45.802;16.114;2022-11-09T02:49:34;100505.66;;;4.07;100.00
48624;BME280;34422;45.802;16.114;2022-11-09T02:52:01;100508.31;;;4.07;100.00
48624;BME280;34422;45.802;16.114;2022-11-09T02:54:28;100512.34;;;4.11;100.00
48624;BME280;34422;45.802;16.114;2022-11-09T02:56:55;100513.00;;;4.13;100.00
48624;BME280;34422;45.802;16.114;2022-11-09T02:59:22;100519.03;;;4.15;100.00
48624;BME280;34422;45.802;16.114;2022-11-09T03:01:48;100511.69;;;4.17;100.00
48624;BME280;34422;45.802;16.114;2022-11-09T03:04:15;100520.06;;;4.22;100.00
48624;BME280;34422;45.802;16.114;2022-11-09T03:06:42;100511.03;;;4.23;100.00
48624;BME280;34422;45.802;16.114;2022-11-09T03:09:10;100502.31;;;4.29;100.00
48624;BME280;34422;45.802;16.114;2022-11-09T03:11:39;100511.72;;;4.33;100.00
48624;BME280;34422;45.802;16.114;2022-11-09T03:14:07;100502.00;;;4.32;100.00
48624;BME280;34422;45.802;16.114;2022-11-09T03:16:36;100510.03;;;4.32;100.00
48624;BME280;34422;45.802;16.114;2022-11-09T03:19:04;100501.16;;;4.32;100.00
48624;BME280;34422;45.802;16.114;2022-11-09T03:21:31;100502.84;;;4.33;100.00
48624;BME280;34422;45.802;16.114;2022-11-09T03:23:57;100505.66;;;4.39;100.00
48624;BME280;34422;45.802;16.114;2022-11-09T03:26:24;100496.31;;;4.35;100.00
48624;BME280;34422;45.802;16.114;2022-11-09T03:28:51;100504.00;;;4.38;100.00
48624;BME280;34422;45.802;16.114;2022-11-09T03:31:18;100505.66;;;4.39;100.00
48624;BME280;34422;45.802;16.114;2022-11-09T03:33:45;100500.97;;;4.41;100.00
48624;BME280;34422;45.802;16.114;2022-11-09T03:36:12;100511.69;;;4.41;100.00
48624;BME280;34422;45.802;16.114;2022-11-09T03:38:41;100504.00;;;4.38;100.00
48624;BME280;34422;45.802;16.114;2022-11-09T03:41:08;100501.00;;;4.33;100.00
48624;BME280;34422;45.802;16.114;2022-11-09T03:43:35;100508.34;;;4.31;100.00
48624;BME280;34422;45.802;16.114;2022-11-09T03:46:02;100508.69;;;4.28;100.00
48624;BME280;34422;45.802;16.114;2022-11-09T03:48:29;100514.03;;;4.28;100.00
48624;BME280;34422;45.802;16.114;2022-11-09T03:50:56;100499.97;;;4.26;100.00
48624;BME280;34422;45.802;16.114;2022-11-09T03:53:23;100500.31;;;4.23;100.00
48624;BME280;34422;45.802;16.114;2022-11-09T03:55:49;100492.28;;;4.23;100.00
48624;BME280;34422;45.802;16.114;2022-11-09T03:58:16;100496.63;;;4.24;100.00
48624;BME280;34422;45.802;16.114;2022-11-09T04:00:43;100494.97;;;4.23;100.00
48624;BME280;34422;45.802;16.114;2022-11-09T04:03:10;100494.97;;;4.23;100.00
48624;BME280;34422;45.802;16.114;2022-11-09T04:05:37;100484.75;;;4.18;100.00
48624;BME280;34422;45.802;16.114;2022-11-09T04:08:04;100487.09;;;4.21;100.00
48624;BME280;34422;45.802;16.114;2022-11-09T04:10:30;100482.22;;;4.25;100.00
48624;BME280;34422;45.802;16.114;2022-11-09T04:12:57;100495.59;;;4.25;100.00
48624;BME280;34422;45.802;16.114;2022-11-09T04:15:24;100504.84;;;4.22;100.00
48624;BME280;34422;45.802;16.114;2022-11-09T04:17:58;100499.28;;;4.16;100.00
48624;BME280;34422;45.802;16.114;2022-11-09T04:20:27;100500.63;;;4.12;100.00
48624;BME280;34422;45.802;16.114;2022-11-09T04:22:59;100498.09;;;4.10;100.00
48624;BME280;34422;45.802;16.114;2022-11-09T04:25:28;100498.78;;;4.12;100.00
48624;BME280;34422;45.802;16.114;2022-11-09T04:27:57;100497.28;;;4.18;100.00
48624;BME280;34422;45.802;16.114;2022-11-09T04:30:25;100500.31;;;4.23;100.00
48624;BME280;34422;45.802;16.114;2022-11-09T04:32:56;100500.63;;;4.28;100.00
48624;BME280;34422;45.802;16.114;2022-11-09T04:35:25;100486.59;;;4.34;100.00
48624;BME280;34422;45.802;16.114;2022-11-09T04:37:56;100468.16;;;4.39;100.00
48624;BME280;34422;45.802;16.114;2022-11-09T04:40:24;100474.88;;;4.35;100.00
48624;BME280;34422;45.802;16.114;2022-11-09T04:42:52;100486.91;;;4.39;100.00
48624;BME280;34422;45.802;16.114;2022-11-09T04:45:20;100485.91;;;4.40;100.00
48624;BME280;34422;45.802;16.114;2022-11-09T04:47:47;100469.50;;;4.43;100.00
48624;BME280;34422;45.802;16.114;2022-11-09T04:50:14;100478.53;;;4.42;100.00
48624;BME280;34422;45.802;16.114;2022-11-09T04:52:41;100467.84;;;4.42;100.00
48624;BME280;34422;45.802;16.114;2022-11-09T04:55:08;100473.19;;;4.42;100.00
48624;BME280;34422;45.802;16.114;2022-11-09T04:57:35;100471.50;;;4.41;100.00
48624;BME280;34422;45.802;16.114;2022-11-09T05:00:02;100470.19;;;4.37;100.00
48624;BME280;34422;45.802;16.114;2022-11-09T05:02:29;100465.84;;;4.36;100.00
48624;BME280;34422;45.802;16.114;2022-11-09T05:04:55;100469.00;;;4.32;100.00
48624;BME280;34422;45.802;16.114;2022-11-09T05:07:22;100469.81;;;4.24;100.00
48624;BME280;34422;45.802;16.114;2022-11-09T05:09:49;100480.53;;;4.24;100.00
48624;BME280;34422;45.802;16.114;2022-11-09T05:12:16;100480.53;;;4.24;100.00
48624;BME280;34422;45.802;16.114;2022-11-09T05:14:42;100470.50;;;4.26;100.00
48624;BME280;34422;45.802;16.114;2022-11-09T05:17:09;100477.69;;;4.25;100.00
48624;BME280;34422;45.802;16.114;2022-11-09T05:19:36;100480.53;;;4.24;100.00
48624;BME280;34422;45.802;16.114;2022-11-09T05:22:03;100485.91;;;4.24;100.00
48624;BME280;34422;45.802;16.114;2022-11-09T05:24:48;100489.94;;;4.28;100.00
48624;BME280;34422;45.802;16.114;2022-11-09T05:27:17;100485.25;;;4.30;100.00
48624;BME280;34422;45.802;16.114;2022-11-09T05:29:44;100483.41;;;4.39;100.00
48624;BME280;34422;45.802;16.114;2022-11-09T05:32:11;100477.72;;;4.42;100.00
48624;BME280;34422;45.802;16.114;2022-11-09T05:34:38;100476.88;;;4.41;100.00
48624;BME280;34422;45.802;16.114;2022-11-09T05:37:05;100485.44;;;4.37;100.00
48624;BME280;34422;45.802;16.114;2022-11-09T05:39:32;100480.25;;;4.35;100.00
48624;BME280;34422;45.802;16.114;2022-11-09T05:42:00;100473.19;;;4.34;100.00
48624;BME280;34422;45.802;16.114;2022-11-09T05:44:27;100482.25;;;4.33;100.00
48624;BME280;34422;45.802;16.114;2022-11-09T05:46:54;100480.56;;;4.40;100.00
48624;BME280;34422;45.802;16.114;2022-11-09T05:49:21;100469.16;;;4.38;100.00
48624;BME280;34422;45.802;16.114;2022-11-09T05:51:47;100482.41;;;4.40;100.00
48624;BME280;34422;45.802;16.114;2022-11-09T05:54:14;100474.88;;;4.43;100.00
48624;BME280;34422;45.802;16.114;2022-11-09T05:56:41;100486.09;;;4.47;100.00
48624;BME280;34422;45.802;16.114;2022-11-09T05:59:08;100488.09;;;4.53;100.00
48624;BME280;34422;45.802;16.114;2022-11-09T06:01:35;100484.25;;;4.55;100.00
48624;BME280;34422;45.802;16.114;2022-11-09T06:04:02;100501.34;;;4.62;100.00
48624;BME280;34422;45.802;16.114;2022-11-09T06:06:31;100498.63;;;4.71;100.00
48624;BME280;34422;45.802;16.114;2022-11-09T06:08:58;100494.94;;;4.80;100.00
48624;BME280;34422;45.802;16.114;2022-11-09T06:11:27;100498.28;;;4.90;100.00
48624;BME280;34422;45.802;16.114;2022-11-09T06:13:55;100497.25;;;4.99;100.00
48624;BME280;34422;45.802;16.114;2022-11-09T06:16:23;100490.72;;;5.02;100.00
48624;BME280;34422;45.802;16.114;2022-11-09T06:18:49;100502.25;;;5.10;100.00
48624;BME280;34422;45.802;16.114;2022-11-09T06:21:17;100505.25;;;5.07;100.00
48624;BME280;34422;45.802;16.114;2022-11-09T06:23:45;100512.97;;;5.18;100.00
48624;BME280;34422;45.802;16.114;2022-11-09T06:26:13;100510.88;;;5.36;100.00
48624;BME280;34422;45.802;16.114;2022-11-09T06:28:40;100501.09;;;5.60;100.00
48624;BME280;34422;45.802;16.114;2022-11-09T06:31:12;100504.88;;;5.74;100.00
48624;BME280;34422;45.802;16.114;2022-11-09T06:33:40;100499.59;;;5.88;100.00
48624;BME280;34422;45.802;16.114;2022-11-09T06:36:09;100510.25;;;6.04;100.00
48624;BME280;34422;45.802;16.114;2022-11-09T06:38:38;100502.81;;;6.15;100.00
48624;BME280;34422;45.802;16.114;2022-11-09T06:41:06;100509.47;;;6.27;100.00
48624;BME280;34422;45.802;16.114;2022-11-09T06:43:34;100510.75;;;6.31;100.00
48624;BME280;34422;45.802;16.114;2022-11-09T06:46:03;100511.38;;;6.41;100.00
48624;BME280;34422;45.802;16.114;2022-11-09T06:48:30;100525.03;;;6.54;100.00
48624;BME280;34422;45.802;16.114;2022-11-09T06:51:01;100534.41;;;6.58;100.00
48624;BME280;34422;45.802;16.114;2022-11-09T06:53:28;100524.97;;;6.62;100.00
48624;BME280;34422;45.802;16.114;2022-11-09T06:56:00;100526.28;;;6.66;100.00
48624;BME280;34422;45.802;16.114;2022-11-09T06:58:29;100518.13;;;6.74;100.00
48624;BME280;34422;45.802;16.114;2022-11-09T07:00:58;100526.59;;;6.86;100.00
48624;BME280;34422;45.802;16.114;2022-11-09T07:03:26;100528.41;;;6.94;100.00
48624;BME280;34422;45.802;16.114;2022-11-09T07:05:53;100535.34;;;7.03;100.00
48624;BME280;34422;45.802;16.114;2022-11-09T07:08:21;100524.88;;;7.08;100.00
48624;BME280;34422;45.802;16.114;2022-11-09T07:10:48;100516.00;;;7.22;100.00
48624;BME280;34422;45.802;16.114;2022-11-09T07:13:16;100530.09;;;7.24;100.00
48624;BME280;34422;45.802;16.114;2022-11-09T07:15:43;100516.06;;;7.29;100.00
48624;BME280;34422;45.802;16.114;2022-11-09T07:18:12;100522.13;;;7.45;100.00
48624;BME280;34422;45.802;16.114;2022-11-09T07:20:40;100534.75;;;7.60;100.00
48624;BME280;34422;45.802;16.114;2022-11-09T07:23:09;100535.94;;;7.57;100.00
48624;BME280;34422;45.802;16.114;2022-11-09T07:25:37;100532.06;;;7.60;100.00
48624;BME280;34422;45.802;16.114;2022-11-09T07:28:06;100535.47;;;7.54;100.00
48624;BME280;34422;45.802;16.114;2022-11-09T07:30:36;100528.03;;;7.56;100.00
48624;BME280;34422;45.802;16.114;2022-11-09T07:33:15;100527.41;;;7.54;100.00
48624;BME280;34422;45.802;16.114;2022-11-09T07:35:47;100537.53;;;7.52;100.00
48624;BME280;34422;45.802;16.114;2022-11-09T07:38:16;100508.84;;;7.44;100.00
48624;BME280;34422;45.802;16.114;2022-11-09T07:40:44;100535.28;;;7.70;100.00
48624;BME280;34422;45.802;16.114;2022-11-09T07:43:13;100519.59;;;7.59;100.00
48624;BME280;34422;45.802;16.114;2022-11-09T07:45:42;100521.94;;;7.62;100.00
48624;BME280;34422;45.802;16.114;2022-11-09T07:48:11;100525.00;;;7.59;100.00
48624;BME280;34422;45.802;16.114;2022-11-09T07:50:42;100520.50;;;7.66;100.00
48624;BME280;34422;45.802;16.114;2022-11-09T07:53:12;100532.69;;;7.62;100.00
48624;BME280;34422;45.802;16.114;2022-11-09T07:55:41;100516.78;;;7.67;100.00
48624;BME280;34422;45.802;16.114;2022-11-09T07:58:12;100521.81;;;7.70;100.00
48624;BME280;34422;45.802;16.114;2022-11-09T08:00:41;100511.31;;;7.75;100.00
48624;BME280;34422;45.802;16.114;2022-11-09T08:03:09;100519.94;;;7.85;100.00
48624;BME280;34422;45.802;16.114;2022-11-09T08:05:38;100523.81;;;7.97;100.00
48624;BME280;34422;45.802;16.114;2022-11-09T08:08:09;100518.59;;;7.96;100.00
48624;BME280;34422;45.802;16.114;2022-11-09T08:10:44;100513.81;;;8.12;100.00
48624;BME280;34422;45.802;16.114;2022-11-09T08:13:18;100511.22;;;8.19;100.00
48624;BME280;34422;45.802;16.114;2022-11-09T08:15:47;100515.53;;;8.35;100.00
48624;BME280;34422;45.802;16.114;2022-11-09T08:18:17;100515.41;;;8.64;100.00
48624;BME280;34422;45.802;16.114;2022-11-09T08:20:47;100523.06;;;9.10;100.00
48624;BME280;34422;45.802;16.114;2022-11-09T08:23:17;100511.28;;;9.58;100.00
48624;BME280;34422;45.802;16.114;2022-11-09T08:25:46;100511.34;;;9.65;100.00
48624;BME280;34422;45.802;16.114;2022-11-09T08:28:14;100523.28;;;9.84;100.00
48624;BME280;34422;45.802;16.114;2022-11-09T08:30:54;100520.09;;;9.74;100.00
48624;BME280;34422;45.802;16.114;2022-11-09T08:33:28;100516.81;;;9.85;100.00
48624;BME280;34422;45.802;16.114;2022-11-09T08:35:56;100518.25;;;10.22;100.00
48624;BME280;34422;45.802;16.114;2022-11-09T08:38:24;100525.81;;;10.79;100.00
48624;BME280;34422;45.802;16.114;2022-11-09T08:40:57;100517.22;;;11.42;100.00
48624;BME280;34422;45.802;16.114;2022-11-09T08:43:25;100524.53;;;11.28;100.00
48624;BME280;34422;45.802;16.114;2022-11-09T08:45:53;100529.13;;;11.34;100.00
48624;BME280;34422;45.802;16.114;2022-11-09T08:48:20;100534.53;;;10.94;100.00
48624;BME280;34422;45.802;16.114;2022-11-09T08:50:56;100515.00;;;10.92;100.00
48624;BME280;34422;45.802;16.114;2022-11-09T08:53:27;100528.09;;;11.02;100.00
48624;BME280;34422;45.802;16.114;2022-11-09T08:55:56;100528.31;;;11.00;100.00
48624;BME280;34422;45.802;16.114;2022-11-09T08:58:23;100523.50;;;10.83;100.00
48624;BME280;34422;45.802;16.114;2022-11-09T09:00:51;100524.56;;;10.75;100.00
48624;BME280;34422;45.802;16.114;2022-11-09T09:03:19;100516.41;;;10.49;100.00
48624;BME280;34422;45.802;16.114;2022-11-09T09:05:47;100504.75;;;10.48;100.00
48624;BME280;34422;45.802;16.114;2022-11-09T09:08:16;100523.91;;;10.60;100.00
48624;BME280;34422;45.802;16.114;2022-11-09T09:10:49;100519.13;;;10.68;100.00
48624;BME280;34422;45.802;16.114;2022-11-09T09:13:17;100510.59;;;10.72;100.00
48624;BME280;34422;45.802;16.114;2022-11-09T09:15:49;100529.56;;;10.91;100.00
48624;BME280;34422;45.802;16.114;2022-11-09T09:18:16;100530.56;;;11.43;100.00
48624;BME280;34422;45.802;16.114;2022-11-09T09:20:44;100522.84;;;11.40;100.00
48624;BME280;34422;45.802;16.114;2022-11-09T09:23:13;100525.31;;;11.48;100.00
48624;BME280;34422;45.802;16.114;2022-11-09T09:25:46;100526.13;;;11.55;100.00
48624;BME280;34422;45.802;16.114;2022-11-09T09:28:14;100520.72;;;11.55;100.00
48624;BME280;34422;45.802;16.114;2022-11-09T09:30:41;100528.59;;;11.63;100.00
48624;BME280;34422;45.802;16.114;2022-11-09T09:33:09;100526.53;;;11.65;100.00
48624;BME280;34422;45.802;16.114;2022-11-09T09:35:38;100522.69;;;11.93;100.00
48624;BME280;34422;45.802;16.114;2022-11-09T09:38:06;100530.97;;;12.11;100.00
48624;BME280;34422;45.802;16.114;2022-11-09T09:40:41;100514.88;;;12.16;100.00
48624;BME280;34422;45.802;16.114;2022-11-09T09:43:30;100517.97;;;12.20;100.00
48624;BME280;34422;45.802;16.114;2022-11-09T09:45:59;100508.84;;;12.14;100.00
48624;BME280;34422;45.802;16.114;2022-11-09T09:48:41;100511.78;;;12.06;100.00
48624;BME280;34422;45.802;16.114;2022-11-09T09:51:19;100516.00;;;12.02;100.00
48624;BME280;34422;45.802;16.114;2022-11-09T09:53:58;100519.69;;;12.14;100.00
48624;BME280;34422;45.802;16.114;2022-11-09T09:56:33;100516.44;;;12.30;100.00
48624;BME280;34422;45.802;16.114;2022-11-09T10:01:58;100498.34;;;12.24;100.00
48624;BME280;34422;45.802;16.114;2022-11-09T10:04:39;100513.56;;;12.25;100.00
48624;BME280;34422;45.802;16.114;2022-11-09T10:07:17;100505.59;;;12.30;100.00
48624;BME280;34422;45.802;16.114;2022-11-09T10:15:48;100496.41;;;12.63;100.00
48624;BME280;34422;45.802;16.114;2022-11-09T10:21:56;100494.41;;;12.76;100.00
48624;BME280;34422;45.802;16.114;2022-11-09T10:27:00;100481.16;;;13.36;100.00
48624;BME280;34422;45.802;16.114;2022-11-09T10:29:41;100477.59;;;13.36;100.00
48624;BME280;34422;45.802;16.114;2022-11-09T10:32:14;100475.03;;;13.23;100.00
48624;BME280;34422;45.802;16.114;2022-11-09T10:37:27;100465.81;;;13.60;100.00
48624;BME280;34422;45.802;16.114;2022-11-09T10:40:23;100450.41;;;13.54;100.00
48624;BME280;34422;45.802;16.114;2022-11-09T10:43:01;100473.59;;;13.75;100.00
48624;BME280;34422;45.802;16.114;2022-11-09T10:45:38;100463.91;;;14.09;100.00
48624;BME280;34422;45.802;16.114;2022-11-09T10:48:07;100456.81;;;14.08;100.00
48624;BME280;34422;45.802;16.114;2022-11-09T10:50:48;100455.72;;;14.39;100.00
48624;BME280;34422;45.802;16.114;2022-11-09T10:53:24;100456.50;;;14.16;100.00
48624;BME280;34422;45.802;16.114;2022-11-09T10:56:12;100455.97;;;14.37;100.00
48624;BME280;34422;45.802;16.114;2022-11-09T10:58:51;100467.50;;;14.51;100.00
48624;BME280;34422;45.802;16.114;2022-11-09T11:01:23;100459.03;;;14.71;100.00
48624;BME280;34422;45.802;16.114;2022-11-09T11:03:53;100449.91;;;14.77;100.00
48624;BME280;34422;45.802;16.114;2022-11-09T11:11:30;100459.63;;;14.73;100.00
48624;BME280;34422;45.802;16.114;2022-11-09T11:14:28;100444.22;;;14.67;100.00
48624;BME280;34422;45.802;16.114;2022-11-09T11:16:57;100451.59;;;15.01;100.00
48624;BME280;34422;45.802;16.114;2022-11-09T11:24:41;100431.63;;;15.36;100.00
48624;BME280;34422;45.802;16.114;2022-11-09T11:27:26;100434.38;;;15.24;100.00
48624;BME280;34422;45.802;16.114;2022-11-09T11:32:32;100428.88;;;15.47;100.00
48624;BME280;34422;45.802;16.114;2022-11-09T11:35:04;100421.78;;;15.58;100.00
48624;BME280;34422;45.802;16.114;2022-11-09T11:40:16;100416.03;;;15.99;100.00
48624;BME280;34422;45.802;16.114;2022-11-09T11:51:17;100414.44;;;16.32;100.00
48624;BME280;34422;45.802;16.114;2022-11-09T11:53:55;100411.28;;;16.40;100.00
48624;BME280;34422;45.802;16.114;2022-11-09T11:56:50;100410.16;;;16.36;100.00
48624;BME280;34422;45.802;16.114;2022-11-09T11:59:44;100404.69;;;16.36;100.00
48624;BME280;34422;45.802;16.114;2022-11-09T12:02:58;100397.00;;;16.33;100.00
48624;BME280;34422;45.802;16.114;2022-11-09T12:05:48;100392.47;;;16.39;100.00
48624;BME280;34422;45.802;16.114;2022-11-09T12:16:40;100372.94;;;16.63;100.00
48624;BME280;34422;45.802;16.114;2022-11-09T12:33:00;100346.66;;;17.88;100.00
48624;BME280;34422;45.802;16.114;2022-11-09T12:35:36;100350.91;;;17.74;100.00
48624;BME280;34422;45.802;16.114;2022-11-09T12:38:35;100356.25;;;17.64;100.00
48624;BME280;34422;45.802;16.114;2022-11-09T12:41:13;100359.47;;;17.61;100.00
48624;BME280;34422;45.802;16.114;2022-11-09T12:43:53;100358.25;;;17.52;100.00
48624;BME280;34422;45.802;16.114;2022-11-09T12:46:29;100348.78;;;17.59;100.00
48624;BME280;34422;45.802;16.114;2022-11-09T12:49:02;100369.84;;;17.59;100.00
48624;BME280;34422;45.802;16.114;2022-11-09T12:51:34;100367.69;;;17.61;100.00
48624;BME280;34422;45.802;16.114;2022-11-09T12:54:07;100370.38;;;17.56;100.00
48624;BME280;34422;45.802;16.114;2022-11-09T12:56:52;100361.91;;;17.57;100.00
48624;BME280;34422;45.802;16.114;2022-11-09T13:02:00;100372.88;;;17.35;100.00
48624;BME280;34422;45.802;16.114;2022-11-09T13:04:29;100357.38;;;17.24;100.00
48624;BME280;34422;45.802;16.114;2022-11-09T13:09:32;100362.94;;;17.29;100.00
48624;BME280;34422;45.802;16.114;2022-11-09T13:12:17;100360.69;;;17.26;100.00
48624;BME280;34422;45.802;16.114;2022-11-09T13:14:45;100363.50;;;17.31;100.00
48624;BME280;34422;45.802;16.114;2022-11-09T13:25:54;100364.50;;;17.25;100.00
48624;BME280;34422;45.802;16.114;2022-11-09T13:30:57;100364.59;;;17.30;100.00
48624;BME280;34422;45.802;16.114;2022-11-09T13:33:28;100366.56;;;17.35;100.00
48624;BME280;34422;45.802;16.114;2022-11-09T13:36:17;100372.41;;;17.44;100.00
48624;BME280;34422;45.802;16.114;2022-11-09T13:42:31;100367.38;;;17.57;100.00
48624;BME280;34422;45.802;16.114;2022-11-09T13:47:51;100382.28;;;17.93;100.00
48624;BME280;34422;45.802;16.114;2022-11-09T13:50:22;100373.41;;;17.81;100.00
48624;BME280;34422;45.802;16.114;2022-11-09T13:52:52;100380.53;;;17.82;100.00
48624;BME280;34422;45.802;16.114;2022-11-09T13:57:54;100390.03;;;17.74;100.00
48624;BME280;34422;45.802;16.114;2022-11-09T14:00:24;100390.66;;;17.82;100.00
48624;BME280;34422;45.802;16.114;2022-11-09T14:03:21;100384.16;;;17.88;100.00
48624;BME280;34422;45.802;16.114;2022-11-09T14:05:58;100385.59;;;17.95;100.00
48624;BME280;34422;45.802;16.114;2022-11-09T14:08:32;100386.66;;;17.89;100.00
48624;BME280;34422;45.802;16.114;2022-11-09T14:11:17;100384.34;;;17.81;100.00
48624;BME280;34422;45.802;16.114;2022-11-09T14:14:00;100383.63;;;17.91;100.00
48624;BME280;34422;45.802;16.114;2022-11-09T14:22:35;100388.06;;;17.70;100.00
48624;BME280;34422;45.802;16.114;2022-11-09T14:25:17;100389.16;;;17.69;100.00
48624;BME280;34422;45.802;16.114;2022-11-09T14:27:54;100389.16;;;17.69;100.00
48624;BME280;34422;45.802;16.114;2022-11-09T14:30:30;100383.28;;;17.60;100.00